Bladen County Hospital, NC

9:34 PM EDT on April 18, 2015 (GMT -0400)
Elizabethtown | | Change Station
CLOSE
Current Station
Airport
Location: Elizabethtown,
Elevation: 131 ft
Nearby Weather Stations

Elev 131 ft 34.60 °N, 78.58 °W | Updated 19 minutes ago

Scattered Clouds
Scattered Clouds
67 °F
Feels Like 67 °F
N
0
Wind Variable Wind from North

Today
High -- | Low -- °F
--% Chance of Precip.
Yesterday
High -- | Low -- °F
Precip. -- in
6:39 AM 7:48 PM
New Moon, 0% visible
Pressure 29.96 in
Visibility 10.0 miles
Clouds Scattered Clouds 12000 ft
Dew Point 65 °F
Humidity 94%
Rainfall 0.52 in
Snow Depth Not available.
UV 0 out of 12
Pollen 7.50 out of 12
Air Quality Not available.
Flu Activity Sporadic
METAR KEYF 190115Z AUTO 00000KT 10SM SCT120 20/19 A2996 RMK AO2 T01950185

More Conditions Fewer Conditions

Pressure 29.96 in
Visibility 10.0 miles
Clouds Scattered Clouds 12000 ft
Dew Point 65 °F
Humidity 94%
Rainfall 0.52 in
Snow Depth Not available.
UV 0 out of 12
Pollen 7.50 out of 12
Air Quality Not available.
Flu Activity Sporadic
METAR KEYF 190115Z AUTO 00000KT 10SM SCT120 20/19 A2996 RMK AO2 T01950185

More Conditions Fewer Conditions

10-Day Weather Forecast

Almanac

Astronomy

Apr. 18, 2015 Rise Set
Actual Time
Civil Twilight
Nautical Twilight
Astronomical Twilight
Moon
Length of Visible Light
Length of Day
Tomorrow will be .
, % of the Moon is Illuminated

Today's Extremes

State Highs State Lows

Community

WunderPhotos

Upload Photos

1,814,626 photos uploaded!

WunderBlogs® & News

Nearby

Air Quality

  Air Quality AQ Index Pollutant
Not available.

Snow Depth

Station Depth Elevation

Earthquake Activity

City Distance Mag. Time & Date
Minimum magnitude displayed is 2.5.

Coastal Water Temperatures

Place Temperature

Stations

Nearby Weather Stations

Station Location Temp. Windchill Dew Point Humidity Wind Precip. Elev Updated Type